Wray, GA

7:04 AM EDT on September 19, 2014 (GMT -0400)
Douglas Municipal | Change Station
CLOSE
Current Station
Airport
Location: Douglas,
Elevation: 256 ft
Nearby Weather Stations

Elev 256 ft 31.48 °N, 82.86 °W | Updated 9 minutes ago

Clear
Clear
73 °F
Feels Like 73 °F
N
5
Wind Variable Wind from ENE

Today
High -- | Low -- °F
--% Chance of Precip.
Yesterday
High -- | Low -- °F
Precip. -- in
7:18 AM 7:32 PM
Waning Crescent, 20% visible
Pressure 30.01 in
Visibility 7.0 miles
Clouds Clear
Dew Point 72 °F
Humidity 94%
Rainfall 0.00 in
Snow Depth Not available.
UV 0 out of 12
Pollen 7.80 out of 12
Air Quality Not available.
Flu Activity Not available.
METAR KDQH 191055Z AUTO 06004KT 7SM CLR 23/22 A3001 RMK AO2

More Conditions Fewer Conditions

Pressure 30.01 in
Visibility 7.0 miles
Clouds Clear
Dew Point 72 °F
Humidity 94%
Rainfall 0.00 in
Snow Depth Not available.
UV 0 out of 12
Pollen 7.80 out of 12
Air Quality Not available.
Flu Activity Not available.
METAR KDQH 191055Z AUTO 06004KT 7SM CLR 23/22 A3001 RMK AO2

More Conditions Fewer Conditions

10-Day Weather Forecast

Almanac

Astronomy

Sep. 19, 2014 Rise Set
Actual Time 7:18 AM EDT 7:32 PM EDT
Civil Twilight 6:54 AM EDT 7:57 PM EDT
Nautical Twilight 6:26 AM EDT 8:25 PM EDT
Astronomical Twilight 5:57 AM EDT 8:54 PM EDT
Moon 3:15 AM EDT 4:50 PM EDT
Length of Visible Light 13h 02m
Length of Day
12h 14m
Tomorrow will be 1m 54s shorter.
Waning Crescent, 20% of the Moon is Illuminated
Today
Waning Crescent
Sep 24
New
Oct 1
First Quarter
Oct 8
Full
Oct 15
Last Quarter

Today's Extremes

State Highs State Lows

Community

WunderPhotos

Upload Photos

1,754,592 photos uploaded!

WunderBlogs® & News

Nearby

Snow Depth

Station Depth Elevation
No new snow has been reported.

Earthquake Activity

City Distance Mag. Time & Date
No recent earthquake activity has been reported nearby.
Minimum magnitude displayed is 2.5.

Coastal Water Temperatures

Place Temperature
No Stations Reporting

Nearby Weather Stations